Bachir Chihani — 7TJA — position and weather

sailwx.info

Track history (hours):
 
Tides and Currents Weather Stations Pressure Air Temp Water Temp Dewpoint Dewpoint Depression Visibility Wind Speed Wind Dir Waves Ship Positions

Bachir Chihani

Last reported at 2014-Aug-29 21:23 UTC. Time now 2014-Aug-30 08:29 UTC.
Position N 35°49' W 000°16'.

Length 280 m; draft 9.1 m.

Type: Ship (hazmat cat C). MMSI: 605106010.

Date/timePositionNaut miles runAvg speedWind from/ knotsBaromVisibWave heightAir tempDewpointWater temp
2014-Aug-29 21:23N 35°49' W 000°16'0 0.0
2014-Aug-29 20:23N 35°49' W 000°16'0 0.0
2014-Aug-29 19:29N 35°49' W 000°16'1 0.3
2014-Aug-29 14:08N 35°49' W 000°14'1 2.4
2014-Aug-29 13:33N 35°51' W 000°13'0 0.4
2014-Aug-29 12:28N 35°51' W 000°13'1 0.7
2014-Aug-29 10:25N 35°52' W 000°14'0 0.4
2014-Aug-29 09:34N 35°52' W 000°14'1 0.5
2014-Aug-29 08:33N 35°53' W 000°13'2 1.4
2014-Aug-29 07:16N 35°55' W 000°14'0 0.3
2014-Aug-29 06:33N 35°55' W 000°14'0 0.4
2014-Aug-29 05:33N 35°54' W 000°13'0 0.4
2014-Aug-29 04:30N 35°54' W 000°13'0 0.3
2014-Aug-29 03:25N 35°54' W 000°13'1 1.0
2014-Aug-29 02:04N 35°54' W 000°14'0 0.5
2014-Aug-29 01:25N 35°54' W 000°14'0 0.4
2014-Aug-29 00:32N 35°53' W 000°14'0 0.4
2014-Aug-28 23:33N 35°53' W 000°13'1 0.4
2014-Aug-28 21:20N 35°53' W 000°12'0 0.4
2014-Aug-28 20:33N 35°53' W 000°13'2 1.8
2014-Aug-28 19:33N 35°52' W 000°14'0 0.2
2014-Aug-28 18:33N 35°52' W 000°14'1 0.6
2014-Aug-28 17:30N 35°52' W 000°13'1 0.6
2014-Aug-28 16:33N 35°52' W 000°13'1 0.6
2014-Aug-28 15:29N 35°52' W 000°12'0 0.5
2014-Aug-28 14:33N 35°52' W 000°12'0 0.4
2014-Aug-28 13:33N 35°53' W 000°12'1 0.6
2014-Aug-28 11:34N 35°52' W 000°14'0 0.4
2014-Aug-28 10:33N 35°52' W 000°13'0 0.3
2014-Aug-28 09:22N 35°52' W 000°13'0 0.2
2014-Aug-28 08:33N 35°52' W 000°13'0 0.4
2014-Aug-28 07:28N 35°52' W 000°13'3 2.6
2014-Aug-28 06:11N 35°55' W 000°13'0 0.4
2014-Aug-28 05:23N 35°55' W 000°13'1 0.3
2014-Aug-28 02:28N 35°55' W 000°12'0 0.2
2014-Aug-28 01:31N 35°54' W 000°12'0 0.3
2014-Aug-28 00:33N 35°54' W 000°12'0 0.4
2014-Aug-27 23:33N 35°54' W 000°12'0 0.3
2014-Aug-27 22:33N 35°54' W 000°11'2 1.3
2014-Aug-27 21:04N 35°53' W 000°14'0 0.5
2014-Aug-27 20:28N 35°53' W 000°14'0 0.3
2014-Aug-27 19:32N 35°53' W 000°13'0 0.4
2014-Aug-27 18:19N 35°53' W 000°13'0 0.4
2014-Aug-27 17:23N 35°53' W 000°12'0 0.3
2014-Aug-27 16:33N 35°53' W 000°12'0 0.4
2014-Aug-27 15:33N 35°53' W 000°12'1 0.7
2014-Aug-27 14:27N 35°52' W 000°13'1 0.8
2014-Aug-27 13:33N 35°52' W 000°13'0 0.5
2014-Aug-27 12:33N 35°52' W 000°13'0 0.2
2014-Aug-27 10:32N 35°53' W 000°13'0 0.1
2014-Aug-27 09:31N 35°53' W 000°13'0 0.2
2014-Aug-27 08:33N 35°53' W 000°13'0 0.4
2014-Aug-27 07:33N 35°53' W 000°12'3 2.7
2014-Aug-27 06:33N 35°56' W 000°12'1 1.4
2014-Aug-27 05:33N 35°57' W 000°12'1 0.7
2014-Aug-27 04:30N 35°56' W 000°12'1 0.6
2014-Aug-27 03:33N 35°56' W 000°12'1 0.7
2014-Aug-27 02:32N 35°55' W 000°12'0 0.5
2014-Aug-27 01:33N 35°54' W 000°12'1 0.5
2014-Aug-27 00:20N 35°54' W 000°12'1 0.5
2014-Aug-26 23:22N 35°53' W 000°12'1 0.6
2014-Aug-26 22:21N 35°53' W 000°12'0 0.4
2014-Aug-26 21:33N 35°53' W 000°11'0 0.3
2014-Aug-26 20:30N 35°52' W 000°11'0 0.3
2014-Aug-26 19:31N 35°53' W 000°11'0 0.3
2014-Aug-26 18:33N 35°53' W 000°10'1 0.5
2014-Aug-26 17:33N 35°53' W 000°10'0 0.4
2014-Aug-26 16:33N 35°53' W 000°10'1 0.5
2014-Aug-26 15:33N 35°54' W 000°10'0 0.5
2014-Aug-26 14:33N 35°54' W 000°10'2 1.7
2014-Aug-26 13:33N 35°53' W 000°12'1 0.9
2014-Aug-26 12:33N 35°54' W 000°13'3 2.5
2014-Aug-26 11:24N 35°57' W 000°12'3 2.1
2014-Aug-26 10:07N 35°59' W 000°12'0 0.4
2014-Aug-26 09:33N 35°59' W 000°12'0 0.4
2014-Aug-26 08:33N 35°59' W 000°12'0 0.4
2014-Aug-26 07:25N 35°58' W 000°12'0 0.4
2014-Aug-26 06:27N 35°58' W 000°12'0 0.3
2014-Aug-26 04:33N 35°57' W 000°13'0 0.1
2014-Aug-26 03:33N 35°57' W 000°13'0 0.1
2014-Aug-26 02:33N 35°57' W 000°13'0 0.2
2014-Aug-26 01:34N 35°57' W 000°13'0 0.3
2014-Aug-26 00:33N 35°57' W 000°13'0 0.4
2014-Aug-25 23:33N 35°56' W 000°13'0 0.3
2014-Aug-25 22:33N 35°56' W 000°13'1 0.8
2014-Aug-25 21:33N 35°57' W 000°14'1 0.9
2014-Aug-25 20:14N 35°56' W 000°15'1 0.7
2014-Aug-25 19:33N 35°56' W 000°14'1 0.9
2014-Aug-25 18:34N 35°55' W 000°13'2 1.7
2014-Aug-25 17:34N 35°55' W 000°11'2 2.4
2014-Aug-25 16:34N 35°53' W 000°10'0 0.3
2014-Aug-25 15:33N 35°53' W 000°10'1 0.7
2014-Aug-25 14:33N 35°54' W 000°09'2 1.9
2014-Aug-25 13:33N 35°54' W 000°11'1 0.7
2014-Aug-25 12:34N 35°54' W 000°12'0 0.3
2014-Aug-25 11:33N 35°55' W 000°12'1 0.7
2014-Aug-25 10:33N 35°55' W 000°13'1 0.5
2014-Aug-25 09:33N 35°55' W 000°13'4 2.7
2014-Aug-25 08:10N 35°51' W 000°14'1 0.0
2014-Aug-24 15:28N 35°51' W 000°14'0 0.0
2014-Aug-24 14:28N 35°51' W 000°14'3 0.2
2014-Aug-23 22:33N 35°53' W 000°12'3 0.1
2014-Aug-23 01:33N 35°54' W 000°09'0 0.2
2014-Aug-23 00:33N 35°54' W 000°09'1 0.6
2014-Aug-22 23:33N 35°54' W 000°10'2 1.9
2014-Aug-22 22:33N 35°54' W 000°12'0 0.2
2014-Aug-22 21:29N 35°53' W 000°12'0 0.5
2014-Aug-22 20:33N 35°54' W 000°12'0 0.2
2014-Aug-22 19:32N 35°54' W 000°12'5 2.5
2014-Aug-22 17:26N 35°53' W 000°05'1 0.8
2014-Aug-22 16:34N 35°53' W 000°06'2 1.7
2014-Aug-22 15:31N 35°53' W 000°08'2 1.9
2014-Aug-22 14:33N 35°54' W 000°11'2 1.5
2014-Aug-22 13:03N 35°52' W 000°09'1 1.5
2014-Aug-22 12:33N 35°52' W 000°08'2 1.5
2014-Aug-22 11:19N 35°53' W 000°09'1 1.0
2014-Aug-22 10:33N 35°54' W 000°09'4 1.1
2014-Aug-22 06:33N 35°56' W 000°05'0 0.4
2014-Aug-22 05:32N 35°56' W 000°05'0 0.4
2014-Aug-22 04:24N 35°56' W 000°06'0 0.4
2014-Aug-22 03:26N 35°56' W 000°06'1 0.6
2014-Aug-22 02:33N 35°56' W 000°07'1 0.9
2014-Aug-22 01:34N 35°55' W 000°08'2 2.5
2014-Aug-22 00:33N 35°53' W 000°06'1 0.8
2014-Aug-21 23:19N 35°53' W 000°07'1 1.0
2014-Aug-21 22:13N 35°54' W 000°08'1 1.3
2014-Aug-21 21:31N 35°55' W 000°08'1 0.9
2014-Aug-21 20:33N 35°55' W 000°07'1 1.5
2014-Aug-21 19:33N 35°54' W 000°08'1 0.5
2014-Aug-21 18:34N 35°54' W 000°08'1 0.6
2014-Aug-21 17:30N 35°54' W 000°09'1 0.9
2014-Aug-21 16:33N 35°54' W 000°10'3 2.3
2014-Aug-21 15:10N 35°53' W 000°13'2 2.9
2014-Aug-21 14:24N 35°51' W 000°15'6 0.5
2014-Aug-21 02:30N 35°55' W 000°10'1 0.8
2014-Aug-21 01:33N 35°55' W 000°09'1 0.7
2014-Aug-21 00:22N 35°55' W 000°10'0 0.6
2014-Aug-20 23:33N 35°55' W 000°10'0 0.5
2014-Aug-20 22:32N 35°54' W 000°11'0 0.5
2014-Aug-20 21:33N 35°54' W 000°11'0 0.4
2014-Aug-20 20:33N 35°54' W 000°11'1 0.7
2014-Aug-20 19:33N 35°54' W 000°12'1 1.2
2014-Aug-20 18:34N 35°53' W 000°14'1 0.6
2014-Aug-20 17:33N 35°54' W 000°13'1 1.4
2014-Aug-20 16:33N 35°55' W 000°13'4 2.0
2014-Aug-20 14:23N 35°51' W 000°13'2 0.8
2014-Aug-20 12:22N 35°51' W 000°11'2 0.4
2014-Aug-20 08:20N 35°52' W 000°09'1 1.3
2014-Aug-20 07:33N 35°53' W 000°10'1 0.8
2014-Aug-20 06:27N 35°53' W 000°11'5 1.2
2014-Aug-20 02:06N 35°58' W 000°08'1 0.6
2014-Aug-20 01:18N 35°57' W 000°08'  
Track history (hours):
 
Tides and Currents Weather Stations Pressure Air Temp Water Temp Dewpoint Dewpoint Depression Visibility Wind Speed Wind Dir Waves Ship Positions

Bachir Chihani

Last reported at 2014-Aug-29 21:23 UTC. Time now 2014-Aug-30 08:29 UTC.
Position N 35°49' W 000°16'.

Length 280 m; draft 9.1 m.

Type: Ship (hazmat cat C). MMSI: 605106010.

Date/timePositionNaut miles runAvg speedWind from/ knotsBaromVisibWave heightAir tempDewpointWater temp
2014-Aug-29 21:23N 35°49' W 000°16'0 0.0
2014-Aug-29 20:23N 35°49' W 000°16'0 0.0
2014-Aug-29 19:29N 35°49' W 000°16'1 0.3
2014-Aug-29 14:08N 35°49' W 000°14'1 2.4
2014-Aug-29 13:33N 35°51' W 000°13'0 0.4
2014-Aug-29 12:28N 35°51' W 000°13'1 0.7
2014-Aug-29 10:25N 35°52' W 000°14'0 0.4
2014-Aug-29 09:34N 35°52' W 000°14'1 0.5
2014-Aug-29 08:33N 35°53' W 000°13'2 1.4
2014-Aug-29 07:16N 35°55' W 000°14'0 0.3
2014-Aug-29 06:33N 35°55' W 000°14'0 0.4
2014-Aug-29 05:33N 35°54' W 000°13'0 0.4
2014-Aug-29 04:30N 35°54' W 000°13'0 0.3
2014-Aug-29 03:25N 35°54' W 000°13'1 1.0
2014-Aug-29 02:04N 35°54' W 000°14'0 0.5
2014-Aug-29 01:25N 35°54' W 000°14'0 0.4
2014-Aug-29 00:32N 35°53' W 000°14'0 0.4
2014-Aug-28 23:33N 35°53' W 000°13'1 0.4
2014-Aug-28 21:20N 35°53' W 000°12'0 0.4
2014-Aug-28 20:33N 35°53' W 000°13'2 1.8
2014-Aug-28 19:33N 35°52' W 000°14'0 0.2
2014-Aug-28 18:33N 35°52' W 000°14'1 0.6
2014-Aug-28 17:30N 35°52' W 000°13'1 0.6
2014-Aug-28 16:33N 35°52' W 000°13'1 0.6
2014-Aug-28 15:29N 35°52' W 000°12'0 0.5
2014-Aug-28 14:33N 35°52' W 000°12'0 0.4
2014-Aug-28 13:33N 35°53' W 000°12'1 0.6
2014-Aug-28 11:34N 35°52' W 000°14'0 0.4
2014-Aug-28 10:33N 35°52' W 000°13'0 0.3
2014-Aug-28 09:22N 35°52' W 000°13'0 0.2
2014-Aug-28 08:33N 35°52' W 000°13'0 0.4
2014-Aug-28 07:28N 35°52' W 000°13'3 2.6
2014-Aug-28 06:11N 35°55' W 000°13'0 0.4
2014-Aug-28 05:23N 35°55' W 000°13'1 0.3
2014-Aug-28 02:28N 35°55' W 000°12'0 0.2
2014-Aug-28 01:31N 35°54' W 000°12'0 0.3
2014-Aug-28 00:33N 35°54' W 000°12'0 0.4
2014-Aug-27 23:33N 35°54' W 000°12'0 0.3
2014-Aug-27 22:33N 35°54' W 000°11'2 1.3
2014-Aug-27 21:04N 35°53' W 000°14'0 0.5
2014-Aug-27 20:28N 35°53' W 000°14'0 0.3
2014-Aug-27 19:32N 35°53' W 000°13'0 0.4
2014-Aug-27 18:19N 35°53' W 000°13'0 0.4
2014-Aug-27 17:23N 35°53' W 000°12'0 0.3
2014-Aug-27 16:33N 35°53' W 000°12'0 0.4
2014-Aug-27 15:33N 35°53' W 000°12'1 0.7
2014-Aug-27 14:27N 35°52' W 000°13'1 0.8
2014-Aug-27 13:33N 35°52' W 000°13'0 0.5
2014-Aug-27 12:33N 35°52' W 000°13'0 0.2
2014-Aug-27 10:32N 35°53' W 000°13'0 0.1
2014-Aug-27 09:31N 35°53' W 000°13'0 0.2
2014-Aug-27 08:33N 35°53' W 000°13'0 0.4
2014-Aug-27 07:33N 35°53' W 000°12'3 2.7
2014-Aug-27 06:33N 35°56' W 000°12'1 1.4
2014-Aug-27 05:33N 35°57' W 000°12'1 0.7
2014-Aug-27 04:30N 35°56' W 000°12'1 0.6
2014-Aug-27 03:33N 35°56' W 000°12'1 0.7
2014-Aug-27 02:32N 35°55' W 000°12'0 0.5
2014-Aug-27 01:33N 35°54' W 000°12'1 0.5
2014-Aug-27 00:20N 35°54' W 000°12'1 0.5
2014-Aug-26 23:22N 35°53' W 000°12'1 0.6
2014-Aug-26 22:21N 35°53' W 000°12'0 0.4
2014-Aug-26 21:33N 35°53' W 000°11'0 0.3
2014-Aug-26 20:30N 35°52' W 000°11'0 0.3
2014-Aug-26 19:31N 35°53' W 000°11'0 0.3
2014-Aug-26 18:33N 35°53' W 000°10'1 0.5
2014-Aug-26 17:33N 35°53' W 000°10'0 0.4
2014-Aug-26 16:33N 35°53' W 000°10'1 0.5
2014-Aug-26 15:33N 35°54' W 000°10'0 0.5
2014-Aug-26 14:33N 35°54' W 000°10'2 1.7
2014-Aug-26 13:33N 35°53' W 000°12'1 0.9
2014-Aug-26 12:33N 35°54' W 000°13'3 2.5
2014-Aug-26 11:24N 35°57' W 000°12'3 2.1
2014-Aug-26 10:07N 35°59' W 000°12'0 0.4
2014-Aug-26 09:33N 35°59' W 000°12'0 0.4
2014-Aug-26 08:33N 35°59' W 000°12'0 0.4
2014-Aug-26 07:25N 35°58' W 000°12'0 0.4
2014-Aug-26 06:27N 35°58' W 000°12'0 0.3
2014-Aug-26 04:33N 35°57' W 000°13'0 0.1
2014-Aug-26 03:33N 35°57' W 000°13'0 0.1
2014-Aug-26 02:33N 35°57' W 000°13'0 0.2
2014-Aug-26 01:34N 35°57' W 000°13'0 0.3
2014-Aug-26 00:33N 35°57' W 000°13'0 0.4
2014-Aug-25 23:33N 35°56' W 000°13'0 0.3
2014-Aug-25 22:33N 35°56' W 000°13'1 0.8
2014-Aug-25 21:33N 35°57' W 000°14'1 0.9
2014-Aug-25 20:14N 35°56' W 000°15'1 0.7
2014-Aug-25 19:33N 35°56' W 000°14'1 0.9
2014-Aug-25 18:34N 35°55' W 000°13'2 1.7
2014-Aug-25 17:34N 35°55' W 000°11'2 2.4
2014-Aug-25 16:34N 35°53' W 000°10'0 0.3
2014-Aug-25 15:33N 35°53' W 000°10'1 0.7
2014-Aug-25 14:33N 35°54' W 000°09'2 1.9
2014-Aug-25 13:33N 35°54' W 000°11'1 0.7
2014-Aug-25 12:34N 35°54' W 000°12'0 0.3
2014-Aug-25 11:33N 35°55' W 000°12'1 0.7
2014-Aug-25 10:33N 35°55' W 000°13'1 0.5
2014-Aug-25 09:33N 35°55' W 000°13'4 2.7
2014-Aug-25 08:10N 35°51' W 000°14'1 0.0
2014-Aug-24 15:28N 35°51' W 000°14'0 0.0
2014-Aug-24 14:28N 35°51' W 000°14'3 0.2
2014-Aug-23 22:33N 35°53' W 000°12'3 0.1
2014-Aug-23 01:33N 35°54' W 000°09'0 0.2
2014-Aug-23 00:33N 35°54' W 000°09'1 0.6
2014-Aug-22 23:33N 35°54' W 000°10'2 1.9
2014-Aug-22 22:33N 35°54' W 000°12'0 0.2
2014-Aug-22 21:29N 35°53' W 000°12'0 0.5
2014-Aug-22 20:33N 35°54' W 000°12'0 0.2
2014-Aug-22 19:32N 35°54' W 000°12'5 2.5
2014-Aug-22 17:26N 35°53' W 000°05'1 0.8
2014-Aug-22 16:34N 35°53' W 000°06'2 1.7
2014-Aug-22 15:31N 35°53' W 000°08'2 1.9
2014-Aug-22 14:33N 35°54' W 000°11'2 1.5
2014-Aug-22 13:03N 35°52' W 000°09'1 1.5
2014-Aug-22 12:33N 35°52' W 000°08'2 1.5
2014-Aug-22 11:19N 35°53' W 000°09'1 1.0
2014-Aug-22 10:33N 35°54' W 000°09'4 1.1
2014-Aug-22 06:33N 35°56' W 000°05'0 0.4
2014-Aug-22 05:32N 35°56' W 000°05'0 0.4
2014-Aug-22 04:24N 35°56' W 000°06'0 0.4
2014-Aug-22 03:26N 35°56' W 000°06'1 0.6
2014-Aug-22 02:33N 35°56' W 000°07'1 0.9
2014-Aug-22 01:34N 35°55' W 000°08'2 2.5
2014-Aug-22 00:33N 35°53' W 000°06'1 0.8
2014-Aug-21 23:19N 35°53' W 000°07'1 1.0
2014-Aug-21 22:13N 35°54' W 000°08'1 1.3
2014-Aug-21 21:31N 35°55' W 000°08'1 0.9
2014-Aug-21 20:33N 35°55' W 000°07'1 1.5
2014-Aug-21 19:33N 35°54' W 000°08'1 0.5
2014-Aug-21 18:34N 35°54' W 000°08'1 0.6
2014-Aug-21 17:30N 35°54' W 000°09'1 0.9
2014-Aug-21 16:33N 35°54' W 000°10'3 2.3
2014-Aug-21 15:10N 35°53' W 000°13'2 2.9
2014-Aug-21 14:24N 35°51' W 000°15'6 0.5
2014-Aug-21 02:30N 35°55' W 000°10'1 0.8
2014-Aug-21 01:33N 35°55' W 000°09'1 0.7
2014-Aug-21 00:22N 35°55' W 000°10'0 0.6
2014-Aug-20 23:33N 35°55' W 000°10'0 0.5
2014-Aug-20 22:32N 35°54' W 000°11'0 0.5
2014-Aug-20 21:33N 35°54' W 000°11'0 0.4
2014-Aug-20 20:33N 35°54' W 000°11'1 0.7
2014-Aug-20 19:33N 35°54' W 000°12'1 1.2
2014-Aug-20 18:34N 35°53' W 000°14'1 0.6
2014-Aug-20 17:33N 35°54' W 000°13'1 1.4
2014-Aug-20 16:33N 35°55' W 000°13'4 2.0
2014-Aug-20 14:23N 35°51' W 000°13'2 0.8
2014-Aug-20 12:22N 35°51' W 000°11'2 0.4
2014-Aug-20 08:20N 35°52' W 000°09'1 1.3
2014-Aug-20 07:33N 35°53' W 000°10'1 0.8
2014-Aug-20 06:27N 35°53' W 000°11'5 1.2
2014-Aug-20 02:06N 35°58' W 000°08'1 0.6
2014-Aug-20 01:18N 35°57' W 000°08'  

Dump ship's entire track history